createdAt,value
2019-05-02T00:02:23.950Z,98325.84
2019-05-02T00:04:55.954Z,98326.58
2019-05-02T00:07:23.101Z,98320.85
2019-05-02T00:09:53.690Z,98315.28
2019-05-02T00:12:24.897Z,98303.48
2019-05-02T00:15:01.715Z,98308.31
2019-05-02T00:17:28.588Z,98312.72
2019-05-02T00:19:58.631Z,98308.72
2019-05-02T00:22:29.021Z,98306.95
2019-05-02T00:24:59.007Z,98301.59
2019-05-02T00:27:32.846Z,98300.16
2019-05-02T00:30:00.799Z,98303.09
2019-05-02T00:32:31.180Z,98296.77
2019-05-02T00:35:01.267Z,98296.65
2019-05-02T00:37:32.804Z,98300.23
2019-05-02T00:40:03.058Z,98289.65
2019-05-02T00:42:33.177Z,98293.83
2019-05-02T00:45:03.235Z,98293.67
2019-05-02T00:47:34.876Z,98291.38
2019-05-02T00:50:11.379Z,98282.66
2019-05-02T00:52:38.871Z,98282.89
2019-05-02T00:55:08.909Z,98286.66
2019-05-02T00:57:38.887Z,98300.87
2019-05-02T01:00:13.470Z,98302.50
2019-05-02T01:02:49.263Z,98301.91
2019-05-02T01:05:19.211Z,98295.93
2019-05-02T01:07:49.295Z,98293.52
2019-05-02T01:10:21.249Z,98284.45
2019-05-02T01:12:51.107Z,98293.58
2019-05-02T01:15:21.153Z,98295.80
2019-05-02T01:17:51.183Z,98292.45
2019-05-02T01:20:22.142Z,98283.57
2019-05-02T01:22:53.646Z,98280.94
2019-05-02T01:25:23.851Z,98284.00
2019-05-02T01:28:17.726Z,98290.32
2019-05-02T01:31:01.617Z,98281.27
2019-05-02T01:33:36.746Z,98278.59
2019-05-02T01:36:08.160Z,98276.44
2019-05-02T01:38:41.177Z,98271.78
2019-05-02T01:41:11.222Z,98253.48
2019-05-02T01:43:41.363Z,98267.14
2019-05-02T01:46:11.625Z,98254.95
2019-05-02T01:48:45.890Z,98251.59
2019-05-02T01:51:13.639Z,98258.15
2019-05-02T01:53:43.632Z,98253.72
2019-05-02T01:56:13.614Z,98242.94
2019-05-02T01:58:43.598Z,98248.40
2019-05-02T02:01:16.262Z,98244.26
2019-05-02T02:03:46.836Z,98236.31
2019-05-02T02:06:17.254Z,98239.09
2019-05-02T02:08:47.322Z,98236.86
2019-05-02T02:11:17.314Z,98235.30
2019-05-02T02:13:47.346Z,98231.13
2019-05-02T02:16:17.316Z,98217.98
2019-05-02T02:19:03.958Z,98216.06
2019-05-02T02:21:43.430Z,98220.70
2019-05-02T02:24:21.173Z,98224.55
2019-05-02T02:26:49.934Z,98221.09
2019-05-02T02:29:20.961Z,98214.19
2019-05-02T02:31:50.961Z,98219.38
2019-05-02T02:34:29.079Z,98215.02
2019-05-02T02:36:53.011Z,98226.95
2019-05-02T02:39:23.010Z,98213.56
2019-05-02T02:41:54.206Z,98212.95
2019-05-02T02:44:45.959Z,98211.61
2019-05-02T02:47:19.059Z,98212.58
2019-05-02T02:49:47.829Z,98211.42
2019-05-02T02:52:17.811Z,98215.44
2019-05-02T02:54:47.854Z,98218.05
2019-05-02T02:57:25.659Z,98220.95
2019-05-02T02:59:49.514Z,98220.20
2019-05-02T03:02:19.507Z,98226.95
2019-05-02T03:04:49.488Z,98228.71
2019-05-02T03:07:25.692Z,98235.60
2019-05-02T03:09:51.358Z,98230.33
2019-05-02T03:12:23.069Z,98229.38
2019-05-02T03:14:54.925Z,98231.17
2019-05-02T03:17:26.398Z,98236.01
2019-05-02T03:20:01.095Z,98233.74
2019-05-02T03:22:28.492Z,98235.09
2019-05-02T03:24:58.582Z,98243.25
2019-05-02T03:27:29.731Z,98249.23
2019-05-02T03:30:00.303Z,98250.88
2019-05-02T03:32:35.225Z,98245.53
2019-05-02T03:35:02.551Z,98243.72
2019-05-02T03:37:32.593Z,98243.50
2019-05-02T03:40:02.646Z,98246.13
2019-05-02T03:42:43.665Z,98250.94
2019-05-02T03:45:05.599Z,98238.94
2019-05-02T03:47:36.775Z,98235.12
2019-05-02T03:50:09.268Z,98234.52
2019-05-02T03:52:43.958Z,98234.18
2019-05-02T03:55:12.371Z,98240.47
2019-05-02T03:57:42.557Z,98255.00
2019-05-02T04:00:21.338Z,98261.16
2019-05-02T04:02:44.819Z,98261.83
2019-05-02T04:05:14.877Z,98270.03
2019-05-02T04:07:45.286Z,98269.41
2019-05-02T04:10:21.471Z,98282.02
2019-05-02T04:12:58.057Z,98271.72
2019-05-02T04:15:28.796Z,98270.20
2019-05-02T04:17:56.311Z,98272.20
2019-05-02T04:20:26.596Z,98285.30
2019-05-02T04:22:56.640Z,98283.63
2019-05-02T04:25:28.020Z,98277.70
2019-05-02T04:28:00.130Z,98293.19
2019-05-02T04:30:30.117Z,98306.66
2019-05-02T04:33:00.390Z,98313.41
2019-05-02T04:35:34.892Z,98305.62
2019-05-02T04:38:08.026Z,98302.30
2019-05-02T04:40:35.084Z,98295.09
2019-05-02T04:43:08.151Z,98290.09
2019-05-02T04:45:51.940Z,98290.02
2019-05-02T04:48:10.308Z,98292.45
2019-05-02T04:50:40.287Z,98292.32
2019-05-02T04:53:10.329Z,98284.67
2019-05-02T04:55:40.307Z,98282.85
2019-05-02T04:58:10.280Z,98286.70
2019-05-02T05:00:45.185Z,98285.39
2019-05-02T05:03:15.443Z,98286.48
2019-05-02T05:05:48.230Z,98287.91
2019-05-02T05:08:26.396Z,98287.39
2019-05-02T05:10:51.778Z,98281.84
2019-05-02T05:13:23.338Z,98279.06
2019-05-02T05:15:53.524Z,98288.92
2019-05-02T05:18:23.557Z,98288.73
2019-05-02T05:20:54.320Z,98289.67
2019-05-02T05:23:28.828Z,98282.53
2019-05-02T05:26:03.339Z,98283.65
2019-05-02T05:28:35.059Z,98287.20
2019-05-02T05:31:02.832Z,98292.23
2019-05-02T05:33:32.878Z,98298.30
2019-05-02T05:36:02.925Z,98295.11
2019-05-02T05:38:35.711Z,98290.41
2019-05-02T05:41:08.951Z,98288.22
2019-05-02T05:43:37.970Z,98296.42
2019-05-02T05:46:12.965Z,98291.43
2019-05-02T05:48:40.873Z,98295.91
2019-05-02T05:51:11.894Z,98296.53
2019-05-02T05:53:42.769Z,98291.70
2019-05-02T05:56:12.721Z,98300.97
2019-05-02T05:58:48.045Z,98301.15
2019-05-02T06:01:14.424Z,98298.95
2019-05-02T06:03:45.073Z,98301.08
2019-05-02T06:06:22.393Z,98298.50
2019-05-02T06:08:49.156Z,98303.80
2019-05-02T06:11:19.964Z,98301.98
2019-05-02T06:13:50.810Z,98302.91
2019-05-02T06:16:20.827Z,98301.38
2019-05-02T06:18:50.824Z,98296.42
2019-05-02T06:21:20.825Z,98303.15
2019-05-02T06:23:50.807Z,98298.50
2019-05-02T06:26:20.776Z,98302.67
2019-05-02T06:28:50.812Z,98298.08
2019-05-02T06:31:20.790Z,98300.45
2019-05-02T06:33:50.778Z,98296.81
2019-05-02T06:36:20.813Z,98292.88
2019-05-02T06:38:52.174Z,98293.47
2019-05-02T06:41:22.502Z,98292.69
2019-05-02T06:43:52.486Z,98290.80
2019-05-02T06:46:27.621Z,98296.04
2019-05-02T06:48:54.265Z,98288.52
2019-05-02T06:51:24.241Z,98294.11
2019-05-02T06:53:54.271Z,98286.44
2019-05-02T06:56:24.240Z,98291.33
2019-05-02T06:58:54.225Z,98290.12
2019-05-02T07:01:24.278Z,98288.89
2019-05-02T07:03:54.324Z,98289.24
2019-05-02T07:06:24.747Z,98295.50
2019-05-02T07:08:55.224Z,98294.48
2019-05-02T07:11:25.247Z,98299.17
2019-05-02T07:13:55.338Z,98298.13
2019-05-02T07:16:37.579Z,98305.02
2019-05-02T07:19:00.404Z,98304.97
2019-05-02T07:21:30.371Z,98301.98
2019-05-02T07:24:00.607Z,98303.03
2019-05-02T07:26:31.241Z,98302.66
2019-05-02T07:29:01.212Z,98298.67
2019-05-02T07:31:31.327Z,98298.30
2019-05-02T07:34:01.303Z,98299.64
2019-05-02T07:36:36.279Z,98294.23
2019-05-02T07:39:05.243Z,98294.48
2019-05-02T07:41:37.208Z,98294.52
2019-05-02T07:44:06.794Z,98296.44
2019-05-02T07:46:36.784Z,98295.14
2019-05-02T07:49:07.096Z,98290.86
2019-05-02T07:51:37.234Z,98286.91
2019-05-02T07:54:07.253Z,98293.28
2019-05-02T07:56:37.236Z,98286.86
2019-05-02T07:59:07.302Z,98287.55
2019-05-02T08:01:37.531Z,98290.61
2019-05-02T08:04:11.102Z,98286.81
2019-05-02T08:06:40.236Z,98289.84
2019-05-02T08:09:11.515Z,98294.59
2019-05-02T08:11:41.660Z,98283.73
2019-05-02T08:14:11.778Z,98292.30
2019-05-02T08:16:41.755Z,98274.20
2019-05-02T08:19:11.798Z,98287.69
2019-05-02T08:21:41.772Z,98275.36
2019-05-02T08:24:11.805Z,98280.02
2019-05-02T08:26:58.362Z,98283.84
2019-05-02T08:29:28.786Z,98275.03
2019-05-02T08:31:59.267Z,98289.78
2019-05-02T08:34:31.008Z,98270.78
2019-05-02T08:37:03.160Z,98279.59
2019-05-02T08:39:34.859Z,98282.98
2019-05-02T08:42:05.931Z,98274.78
2019-05-02T08:44:49.604Z,98279.23
2019-05-02T09:03:02.703Z,98276.89
2019-05-02T09:05:30.425Z,98291.69
2019-05-02T09:08:00.440Z,98290.51
2019-05-02T09:10:31.574Z,98283.20
2019-05-02T09:13:02.679Z,98276.16
2019-05-02T09:15:35.196Z,98282.77
2019-05-02T09:18:04.594Z,98281.92
2019-05-02T09:20:34.592Z,98282.78
2019-05-02T09:23:04.709Z,98288.06
2019-05-02T09:25:36.307Z,98291.13
2019-05-02T09:28:06.428Z,98279.43
2019-05-02T09:30:36.524Z,98291.64
2019-05-02T09:33:06.800Z,98280.76
2019-05-02T09:35:37.861Z,98279.71
2019-05-02T09:38:07.859Z,98280.91
2019-05-02T09:40:37.862Z,98283.14
2019-05-02T09:43:07.908Z,98267.23
2019-05-02T09:45:41.009Z,98275.33
2019-05-02T09:48:09.631Z,98278.52
2019-05-02T09:50:39.630Z,98286.64
2019-05-02T09:53:13.026Z,98279.22
2019-05-02T09:55:49.105Z,98258.47
2019-05-02T09:58:18.931Z,98264.88
2019-05-02T10:00:52.600Z,98277.59
2019-05-02T10:03:22.768Z,98255.42
2019-05-02T10:05:52.955Z,98260.19
2019-05-02T10:08:23.177Z,98264.19
2019-05-02T10:10:53.414Z,98269.97
2019-05-02T10:13:23.422Z,98254.64
2019-05-02T10:15:53.471Z,98268.32
2019-05-02T10:18:28.728Z,98263.04
2019-05-02T10:20:55.891Z,98260.31
2019-05-02T10:23:26.128Z,98268.33
2019-05-02T10:25:56.223Z,98242.12
2019-05-02T10:28:26.243Z,98248.05
2019-05-02T10:30:56.834Z,98254.06
2019-05-02T10:33:33.636Z,98253.02
2019-05-02T10:36:00.130Z,98249.32
2019-05-02T10:38:32.371Z,98254.77
2019-05-02T10:41:04.589Z,98250.81
2019-05-02T10:43:33.990Z,98250.13
2019-05-02T10:46:06.064Z,98262.89
2019-05-02T10:48:37.689Z,98246.47
2019-05-02T10:51:26.329Z,98244.64
2019-05-02T10:53:57.669Z,98252.43
2019-05-02T10:56:27.729Z,98250.30
2019-05-02T10:58:57.777Z,98258.08
2019-05-02T11:01:29.514Z,98255.42
2019-05-02T11:04:10.022Z,98260.97
2019-05-02T11:06:42.614Z,98245.81
2019-05-02T11:09:16.843Z,98241.92
2019-05-02T11:11:44.667Z,98230.38
2019-05-02T11:14:32.472Z,98246.33
2019-05-02T11:17:09.060Z,98250.61
2019-05-02T11:19:43.254Z,98241.36
2019-05-02T11:22:13.244Z,98243.30
2019-05-02T11:24:43.232Z,98258.59
2019-05-02T11:27:13.357Z,98245.77
2019-05-02T11:29:43.473Z,98251.40
2019-05-02T11:32:13.497Z,98248.13
2019-05-02T11:34:43.466Z,98239.17
2019-05-02T11:37:13.586Z,98248.20
2019-05-02T11:39:50.134Z,98253.83
2019-05-02T11:42:17.786Z,98238.77
2019-05-02T11:44:46.988Z,98243.08
2019-05-02T11:47:22.738Z,98253.70
2019-05-02T11:49:52.090Z,98266.36
2019-05-02T11:52:22.601Z,98256.00
2019-05-02T11:54:54.217Z,98253.09
2019-05-02T11:57:28.516Z,98242.84
2019-05-02T11:59:59.332Z,98240.62
2019-05-02T12:02:35.905Z,98253.77
2019-05-02T12:05:12.802Z,98242.59
2019-05-02T12:07:42.817Z,98255.00
2019-05-02T12:10:13.366Z,98232.96
2019-05-02T12:12:43.425Z,98230.23
2019-05-02T12:15:13.763Z,98236.50
2019-05-02T12:17:43.798Z,98224.55
2019-05-02T12:20:13.901Z,98226.16
2019-05-02T12:22:43.905Z,98243.78
2019-05-02T12:25:14.004Z,98246.58
2019-05-02T12:27:44.024Z,98248.08
2019-05-02T12:30:14.747Z,98258.06
2019-05-02T12:32:44.761Z,98261.59
2019-05-02T12:35:14.797Z,98254.55
2019-05-02T12:37:46.988Z,98254.01
2019-05-02T12:40:16.562Z,98253.46
2019-05-02T12:42:46.629Z,98260.59
2019-05-02T12:45:16.960Z,98254.87
2019-05-02T12:47:46.998Z,98265.89
2019-05-02T12:50:17.225Z,98261.59
2019-05-02T12:52:47.254Z,98248.03
2019-05-02T12:55:17.386Z,98273.63
2019-05-02T12:57:47.378Z,98268.66
2019-05-02T13:00:18.724Z,98279.91
2019-05-02T13:02:53.329Z,98270.70
2019-05-02T13:05:23.354Z,98279.71
2019-05-02T13:07:55.327Z,98255.93
2019-05-02T13:10:26.773Z,98262.08
2019-05-02T13:12:56.935Z,98282.18
2019-05-02T13:15:27.581Z,98280.56
2019-05-02T13:17:57.551Z,98267.73
2019-05-02T13:20:29.388Z,98275.78
2019-05-02T13:23:04.783Z,98288.47
2019-05-02T13:25:36.964Z,98308.38
2019-05-02T13:28:06.836Z,98315.31
2019-05-02T13:30:42.943Z,98308.56
2019-05-02T13:33:12.256Z,98303.48
2019-05-02T13:35:51.778Z,98303.35
2019-05-02T13:38:22.427Z,98299.81
2019-05-02T13:40:52.731Z,98293.65
2019-05-02T13:43:24.539Z,98299.02
2019-05-02T13:45:58.916Z,98303.81
2019-05-02T13:48:29.367Z,98308.84
2019-05-02T13:50:59.822Z,98314.84
2019-05-02T13:53:32.023Z,98327.54
2019-05-02T13:56:22.010Z,98332.84
2019-05-02T13:58:52.191Z,98327.52
2019-05-02T14:01:22.812Z,98316.77
2019-05-02T14:03:55.642Z,98325.52
2019-05-02T14:06:29.870Z,98336.95
2019-05-02T14:08:58.970Z,98330.84
2019-05-02T14:11:43.489Z,98329.26
2019-05-02T14:14:13.659Z,98334.63
2019-05-02T14:16:43.649Z,98330.84
2019-05-02T14:19:13.742Z,98335.98
2019-05-02T14:21:43.776Z,98336.46
2019-05-02T14:24:13.775Z,98341.91
2019-05-02T14:26:43.887Z,98349.23
2019-05-02T14:29:16.209Z,98334.91
2019-05-02T14:31:46.744Z,98328.22
2019-05-02T14:34:35.413Z,98344.30
2019-05-02T14:37:05.475Z,98329.22
2019-05-02T14:39:35.454Z,98329.61
2019-05-02T14:42:05.666Z,98346.07
2019-05-02T14:45:01.439Z,98349.89
2019-05-02T14:47:10.098Z,98364.34
2019-05-02T14:49:42.908Z,98360.53
2019-05-02T14:52:13.037Z,98356.25
2019-05-02T14:54:47.778Z,98364.28
2019-05-02T14:57:17.086Z,98353.06
2019-05-02T14:59:50.377Z,98358.98
2019-05-02T15:02:22.933Z,98362.97
2019-05-02T15:04:53.035Z,98363.44
2019-05-02T15:07:26.696Z,98352.34
2019-05-02T15:09:57.176Z,98361.17
2019-05-02T15:12:26.738Z,98350.84
2019-05-02T15:14:58.626Z,98342.47
2019-05-02T15:17:36.253Z,98342.28
2019-05-02T15:20:00.116Z,98368.76
2019-05-02T15:22:33.092Z,98377.52
2019-05-02T15:25:02.705Z,98391.59
2019-05-02T15:27:40.247Z,98405.70
2019-05-02T15:30:07.359Z,98397.90
2019-05-02T15:32:44.948Z,98395.86
2019-05-02T15:35:28.974Z,98390.42
2019-05-02T15:38:02.436Z,98393.07
2019-05-02T15:40:32.473Z,98379.17
2019-05-02T15:43:09.015Z,98376.15
2019-05-02T15:45:36.746Z,98380.45
2019-05-02T15:48:06.351Z,98387.31
2019-05-02T15:50:36.342Z,98383.97
2019-05-02T15:53:10.060Z,98397.81
2019-05-02T15:55:42.120Z,98395.73
2019-05-02T15:58:25.990Z,98397.16
2019-05-02T16:01:07.449Z,98398.88
2019-05-02T16:03:45.858Z,98411.48
2019-05-02T16:06:16.360Z,98407.15
2019-05-02T16:08:46.678Z,98417.18
2019-05-02T16:11:18.234Z,98418.84
2019-05-02T16:13:54.067Z,98417.14
2019-05-02T16:16:22.264Z,98429.88
2019-05-02T16:18:52.649Z,98432.91
2019-05-02T16:21:28.920Z,98434.69
2019-05-02T16:24:14.987Z,98430.59
2019-05-02T16:26:46.932Z,98434.00
2019-05-02T16:29:23.741Z,98445.84
2019-05-02T16:31:55.037Z,98441.61
2019-05-02T16:34:22.702Z,98444.78
2019-05-02T16:36:54.405Z,98443.69
2019-05-02T16:39:24.595Z,98451.02
2019-05-02T16:41:54.719Z,98453.99
2019-05-02T16:44:24.761Z,98455.99
2019-05-02T16:46:54.783Z,98453.49
2019-05-02T16:49:24.824Z,98461.53
2019-05-02T16:51:57.342Z,98468.87
2019-05-02T16:54:26.609Z,98469.38
2019-05-02T16:56:58.580Z,98475.08
2019-05-02T16:59:28.372Z,98468.09
2019-05-02T17:01:59.604Z,98466.23
2019-05-02T17:04:31.780Z,98464.55
2019-05-02T17:07:05.764Z,98465.24
2019-05-02T17:09:54.640Z,98470.19
2019-05-02T17:12:24.714Z,98485.41
2019-05-02T17:14:59.141Z,98491.38
2019-05-02T17:17:33.248Z,98494.33
2019-05-02T17:20:02.524Z,98501.88
2019-05-02T17:22:32.681Z,98501.09
2019-05-02T17:25:05.857Z,98508.41
2019-05-02T17:27:34.560Z,98507.98
2019-05-02T17:30:07.478Z,98510.87
2019-05-02T17:32:37.800Z,98510.38
2019-05-02T17:35:11.393Z,98514.70
2019-05-02T17:37:48.638Z,98523.37
2019-05-02T17:40:16.837Z,98524.77
2019-05-02T17:42:44.748Z,98531.28
2019-05-02T17:45:15.589Z,98532.39
2019-05-02T17:47:47.197Z,98533.95
2019-05-02T17:50:35.522Z,98547.78
2019-05-02T17:53:07.496Z,98542.94
2019-05-02T17:55:40.512Z,98540.03
2019-05-02T17:58:12.377Z,98550.14
2019-05-02T18:00:43.112Z,98554.73
2019-05-02T18:03:15.424Z,98549.52
2019-05-02T18:05:45.174Z,98555.31
2019-05-02T18:08:15.167Z,98554.05
2019-05-02T18:10:45.253Z,98559.44
2019-05-02T18:13:15.234Z,98565.43
2019-05-02T18:15:45.300Z,98567.36
2019-05-02T18:18:15.270Z,98577.95
2019-05-02T18:20:46.603Z,98576.77
2019-05-02T18:23:18.755Z,98579.52
2019-05-02T18:25:48.507Z,98592.02
2019-05-02T18:28:24.514Z,98592.14
2019-05-02T18:30:52.332Z,98595.38
2019-05-02T18:33:22.654Z,98597.78
2019-05-02T18:35:53.830Z,98593.88
2019-05-02T18:38:24.694Z,98600.06
2019-05-02T18:40:55.418Z,98610.48
2019-05-02T18:43:25.495Z,98611.91
2019-05-02T18:45:58.040Z,98617.17
2019-05-02T18:48:27.181Z,98628.08
2019-05-02T18:50:57.309Z,98621.05
2019-05-02T18:53:27.524Z,98631.49
2019-05-02T18:56:01.777Z,98641.25
2019-05-02T18:58:31.942Z,98639.14
2019-05-02T19:01:03.527Z,98645.17
2019-05-02T19:03:33.643Z,98652.80
2019-05-02T19:06:04.878Z,98651.17
2019-05-02T19:08:45.366Z,98658.02
2019-05-02T19:11:12.242Z,98663.76
2019-05-02T19:13:42.896Z,98664.09
2019-05-02T19:16:13.214Z,98672.08
2019-05-02T19:18:43.287Z,98672.66
2019-05-02T19:21:13.356Z,98677.39
2019-05-02T19:23:43.356Z,98681.07
2019-05-02T19:26:15.408Z,98686.31
2019-05-02T19:28:48.354Z,98680.38
2019-05-02T19:31:18.681Z,98682.55
2019-05-02T19:33:48.780Z,98694.67
2019-05-02T19:36:24.362Z,98695.91
2019-05-02T19:38:52.073Z,98700.54
2019-05-02T19:41:22.381Z,98705.28
2019-05-02T19:43:53.385Z,98703.59
2019-05-02T19:46:31.540Z,98705.02
2019-05-02T19:48:55.286Z,98708.06
2019-05-02T19:51:28.079Z,98708.77
2019-05-02T19:53:59.549Z,98711.28
2019-05-02T19:56:33.382Z,98712.73
2019-05-02T19:59:02.560Z,98711.51
2019-05-02T20:01:32.541Z,98717.00
2019-05-02T20:04:06.050Z,98715.03
2019-05-02T20:06:34.545Z,98718.28
2019-05-02T20:09:08.325Z,98720.67
2019-05-02T20:11:40.053Z,98723.43
2019-05-02T20:14:10.116Z,98728.36
2019-05-02T20:16:47.784Z,98729.23
2019-05-02T20:19:25.317Z,98729.23
2019-05-02T20:21:57.160Z,98729.28
2019-05-02T20:24:27.694Z,98734.52
2019-05-02T20:26:57.645Z,98734.45
2019-05-02T20:29:27.709Z,98741.95
2019-05-02T20:31:57.736Z,98743.60
2019-05-02T20:34:27.711Z,98742.69
2019-05-02T20:36:57.740Z,98741.70
2019-05-02T20:39:27.730Z,98751.81
2019-05-02T20:41:57.705Z,98751.59
2019-05-02T20:44:27.712Z,98752.22
2019-05-02T20:46:57.789Z,98752.38
2019-05-02T20:49:27.825Z,98756.61
2019-05-02T20:51:57.898Z,98754.80
2019-05-02T20:54:28.017Z,98755.42
2019-05-02T20:56:58.002Z,98759.27
2019-05-02T20:59:28.023Z,98760.05
2019-05-02T21:01:58.093Z,98766.90
2019-05-02T21:04:28.163Z,98766.50
2019-05-02T21:07:02.586Z,98772.67
2019-05-02T21:09:52.783Z,98774.44
2019-05-02T21:12:23.361Z,98779.50
2019-05-02T21:14:53.350Z,98781.33
2019-05-02T21:17:23.442Z,98784.09
2019-05-02T21:19:53.491Z,98784.89
2019-05-02T21:22:26.557Z,98791.38
2019-05-02T21:24:56.623Z,98792.45
2019-05-02T21:27:26.701Z,98791.39
2019-05-02T21:29:57.628Z,98807.84
2019-05-02T21:32:29.178Z,98814.72
2019-05-02T21:34:59.153Z,98814.73
2019-05-02T21:37:29.183Z,98819.61
2019-05-02T21:39:59.171Z,98828.38
2019-05-02T21:42:29.161Z,98830.04
2019-05-02T21:44:59.200Z,98827.06
2019-05-02T21:47:29.203Z,98825.58
2019-05-02T21:50:06.764Z,98828.95
2019-05-02T21:52:44.114Z,98836.02
2019-05-02T21:55:33.734Z,98829.52
2019-05-02T21:58:03.717Z,98836.87
2019-05-02T22:00:52.640Z,98836.59
2019-05-02T22:03:24.305Z,98834.15
2019-05-02T22:05:54.300Z,98835.47
2019-05-02T22:08:24.326Z,98840.45
2019-05-02T22:10:54.298Z,98844.45
2019-05-02T22:13:24.346Z,98841.45
2019-05-02T22:15:54.334Z,98830.72
2019-05-02T22:18:24.358Z,98842.17
2019-05-02T22:20:55.295Z,98849.88
2019-05-02T22:23:25.364Z,98855.95
2019-05-02T22:25:56.447Z,98856.09
2019-05-02T22:28:26.471Z,98862.64
2019-05-02T22:30:56.445Z,98861.17
2019-05-02T22:33:26.502Z,98864.41
2019-05-02T22:35:56.471Z,98869.16
2019-05-02T22:38:33.550Z,98873.55
2019-05-02T22:41:03.691Z,98873.55
2019-05-02T22:43:34.848Z,98876.37
2019-05-02T22:46:06.433Z,98879.28
2019-05-02T22:48:36.429Z,98873.77
2019-05-02T22:51:06.489Z,98875.90
2019-05-02T22:53:36.461Z,98874.80
2019-05-02T22:56:06.525Z,98875.80
2019-05-02T22:58:36.521Z,98884.23
2019-05-02T23:01:07.083Z,98887.19
2019-05-02T23:03:37.076Z,98881.98
2019-05-02T23:06:07.157Z,98886.09
2019-05-02T23:08:37.129Z,98885.28
2019-05-02T23:11:07.218Z,98887.25
2019-05-02T23:13:37.250Z,98883.19
2019-05-02T23:18:52.032Z,98883.50
2019-05-02T23:21:22.231Z,98883.39
2019-05-02T23:23:53.923Z,98859.48
2019-05-02T23:26:34.233Z,98888.73
2019-05-02T23:29:06.244Z,98893.40
2019-05-02T23:31:36.224Z,98889.07
2019-05-02T23:34:06.270Z,98890.59
2019-05-02T23:36:36.397Z,98888.17
2019-05-02T23:39:09.342Z,98893.27
2019-05-02T23:41:42.088Z,98896.84
2019-05-02T23:44:12.375Z,98896.84
2019-05-02T23:46:42.567Z,98890.48
2019-05-02T23:49:12.982Z,98891.49
2019-05-02T23:51:42.989Z,98897.16
2019-05-02T23:54:13.190Z,98894.33
2019-05-02T23:56:43.360Z,98895.48
2019-05-02T23:59:13.312Z,98890.28
